EGNV/MME METAR and TAF weather

Enter ICAO airport designator
Station Type Date Time Source
EGNV METAR 2019/06/16 06:20 UTC NOAA

EGNV 160620Z 18009KT 9999 FEW008 10/08 Q1012


Station Type Date Time Source
EGNV Decoded METAR 2019/06/16 06:20 UTC NOAA

Tees-Side, United Kingdom (EGNV) 54-31N 001-25W
Jun 16, 2019 - 02:20 AM EDT / 2019.06.16 0620 UTC
Wind: from the S (180 degrees) at 10 MPH (9 KT):0
Visibility: greater than 7 mile(s):0
Sky conditions: mostly clear
Temperature: 50 F (10 C)
Dew Point: 46 F (8 C)
Relative Humidity: 87%
Pressure (altimeter): 29.88 in. Hg (1012 hPa)
ob: EGNV 160620Z 18009KT 9999 FEW008 10/08 Q1012
cycle: 6

Station Type Date Time Source
EGNV TAF 2016/01/23 12:00 UTC NOAA

TAF EGNV 231059Z 2312/2321 18008KT 9999 FEW030 PROB40 2319/2321 6000 RADZ BKN014

Example: see airport list